createdAt,value
2023-05-26T00:02:16.358Z,4.13
2023-05-26T00:04:44.411Z,4.40
2023-05-26T00:07:11.192Z,4.53
2023-05-26T00:09:38.185Z,3.55
2023-05-26T00:12:07.161Z,3.92
2023-05-26T00:14:33.879Z,4.00
2023-05-26T00:17:00.687Z,4.05
2023-05-26T00:19:27.438Z,3.80
2023-05-26T00:21:54.010Z,3.67
2023-05-26T00:24:20.636Z,3.60
2023-05-26T00:26:47.421Z,4.25
2023-05-26T00:29:28.033Z,4.03
2023-05-26T00:31:56.409Z,4.20
2023-05-26T00:34:23.499Z,4.50
2023-05-26T00:36:51.035Z,5.00
2023-05-26T00:39:17.875Z,3.20
2023-05-26T00:41:44.814Z,4.15
2023-05-26T00:44:12.264Z,3.13
2023-05-26T00:46:39.037Z,3.88
2023-05-26T00:49:06.360Z,3.47
2023-05-26T00:51:34.209Z,4.10
2023-05-26T00:54:01.291Z,4.60
2023-05-26T00:56:29.799Z,5.55
2023-05-26T00:58:57.036Z,4.72
2023-05-26T01:01:24.304Z,5.65
2023-05-26T01:03:52.154Z,5.28
2023-05-26T01:06:19.211Z,5.32
2023-05-26T01:08:45.878Z,5.95
2023-05-26T01:11:35.851Z,6.22
2023-05-26T01:14:11.283Z,5.78
2023-05-26T01:16:44.214Z,5.45
2023-05-26T01:19:51.623Z,5.18
2023-05-26T01:22:52.185Z,4.47
2023-05-26T01:25:37.436Z,4.32
2023-05-26T01:28:10.432Z,4.32
2023-05-26T01:30:38.262Z,5.78
2023-05-26T01:33:05.067Z,4.63
2023-05-26T01:35:31.900Z,4.72
2023-05-26T01:38:00.505Z,5.18
2023-05-26T01:40:28.419Z,5.57
2023-05-26T01:43:06.998Z,4.95
2023-05-26T01:45:41.994Z,5.13
2023-05-26T01:48:10.962Z,5.32
2023-05-26T01:50:51.565Z,4.43
2023-05-26T01:53:21.741Z,5.10
2023-05-26T01:55:53.228Z,4.65
2023-05-26T01:58:22.795Z,4.78
2023-05-26T02:00:50.299Z,4.97
2023-05-26T02:03:17.276Z,4.38
2023-05-26T02:05:44.858Z,4.75
2023-05-26T02:08:13.115Z,4.47
2023-05-26T02:10:40.625Z,4.57
2023-05-26T02:13:07.781Z,5.38
2023-05-26T02:15:34.476Z,5.43
2023-05-26T02:18:01.705Z,5.90
2023-05-26T02:20:28.721Z,6.07
2023-05-26T02:22:55.609Z,6.07
2023-05-26T02:25:22.466Z,5.32
2023-05-26T02:27:49.070Z,6.25
2023-05-26T02:30:16.547Z,6.18
2023-05-26T02:32:44.995Z,5.35
2023-05-26T02:35:12.329Z,6.65
2023-05-26T02:37:39.839Z,6.07
2023-05-26T02:40:07.535Z,5.57
2023-05-26T02:42:34.732Z,5.03
2023-05-26T02:45:01.592Z,5.07
2023-05-26T02:47:28.184Z,5.13
2023-05-26T02:49:55.052Z,4.93
2023-05-26T02:52:23.502Z,4.75
2023-05-26T02:54:51.351Z,4.22
2023-05-26T02:57:18.008Z,4.68
2023-05-26T02:59:44.650Z,4.35
2023-05-26T03:02:11.898Z,4.68
2023-05-26T03:04:38.515Z,4.00
2023-05-26T03:07:07.135Z,4.55
2023-05-26T03:09:35.737Z,4.63
2023-05-26T03:12:04.594Z,4.20
2023-05-26T03:14:32.116Z,3.65
2023-05-26T03:16:58.849Z,4.30
2023-05-26T03:19:25.722Z,4.70
2023-05-26T03:21:53.038Z,4.55
2023-05-26T03:24:19.836Z,5.05
2023-05-26T03:26:47.285Z,4.93
2023-05-26T03:29:15.352Z,5.10
2023-05-26T03:31:42.359Z,4.80
2023-05-26T03:34:09.282Z,5.57
2023-05-26T03:36:38.099Z,5.32
2023-05-26T03:39:16.206Z,3.95
2023-05-26T03:41:43.263Z,5.18
2023-05-26T03:44:11.359Z,5.60
2023-05-26T03:46:38.221Z,4.75
2023-05-26T03:49:05.433Z,4.78
2023-05-26T03:51:32.945Z,6.00
2023-05-26T03:53:59.702Z,6.53
2023-05-26T03:56:26.967Z,5.57
2023-05-26T03:58:53.655Z,6.45
2023-05-26T04:01:23.412Z,7.03
2023-05-26T04:03:51.323Z,7.28
2023-05-26T04:06:20.001Z,5.65
2023-05-26T04:08:48.851Z,6.63
2023-05-26T04:11:17.041Z,6.78
2023-05-26T04:13:45.622Z,7.18
2023-05-26T04:16:12.402Z,7.70
2023-05-26T04:18:41.251Z,6.60
2023-05-26T04:21:09.412Z,7.32
2023-05-26T04:23:37.023Z,6.28
2023-05-26T04:26:04.354Z,6.40
2023-05-26T04:29:03.123Z,6.32
2023-05-26T04:31:43.506Z,5.72
2023-05-26T04:34:22.566Z,6.28
2023-05-26T04:37:04.328Z,6.05
2023-05-26T04:39:32.075Z,5.82
2023-05-26T04:41:59.192Z,6.75
2023-05-26T04:44:26.122Z,5.82
2023-05-26T04:46:54.136Z,5.57
2023-05-26T04:49:23.733Z,4.97
2023-05-26T04:51:57.314Z,4.97
2023-05-26T04:54:24.750Z,5.22
2023-05-26T04:56:51.581Z,4.55
2023-05-26T04:59:22.776Z,4.78
2023-05-26T05:01:49.785Z,4.88
2023-05-26T05:04:32.906Z,4.18
2023-05-26T05:07:00.535Z,5.40
2023-05-26T05:09:27.239Z,4.70
2023-05-26T05:11:54.519Z,4.18
2023-05-26T05:14:23.071Z,5.15
2023-05-26T05:16:50.038Z,4.97
2023-05-26T05:19:16.830Z,4.22
2023-05-26T05:21:48.821Z,4.63
2023-05-26T05:24:16.048Z,3.80
2023-05-26T05:26:42.941Z,3.50
2023-05-26T05:29:10.132Z,4.22
2023-05-26T05:31:41.203Z,4.13
2023-05-26T05:34:07.932Z,4.07
2023-05-26T05:36:34.800Z,4.75
2023-05-26T05:39:02.686Z,3.70
2023-05-26T05:41:30.118Z,3.67
2023-05-26T05:43:58.033Z,3.85
2023-05-26T05:46:27.085Z,3.65
2023-05-26T05:51:37.654Z,4.03
2023-05-26T05:54:04.572Z,4.75
2023-05-26T05:56:31.313Z,4.50
2023-05-26T05:58:59.953Z,4.28
2023-05-26T06:01:27.226Z,4.75
2023-05-26T06:03:53.976Z,4.95
2023-05-26T06:06:20.809Z,4.55
2023-05-26T06:08:47.461Z,4.63
2023-05-26T06:11:14.051Z,4.50
2023-05-26T06:13:43.533Z,4.50
2023-05-26T06:16:10.951Z,4.20
2023-05-26T06:18:37.894Z,4.32
2023-05-26T06:21:05.117Z,4.30
2023-05-26T06:23:32.417Z,4.35
2023-05-26T06:26:00.132Z,4.93
2023-05-26T06:28:27.030Z,4.72
2023-05-26T06:30:53.905Z,4.38
2023-05-26T06:33:35.590Z,4.80
2023-05-26T06:36:02.520Z,4.13
2023-05-26T06:38:29.265Z,4.68
2023-05-26T06:41:00.953Z,3.90
2023-05-26T06:43:28.243Z,4.28
2023-05-26T06:45:54.880Z,3.75
2023-05-26T06:48:21.956Z,4.15
2023-05-26T06:51:03.047Z,3.90
2023-05-26T06:53:30.118Z,4.55
2023-05-26T06:55:56.727Z,4.85
2023-05-26T06:58:23.488Z,3.63
2023-05-26T07:01:09.088Z,4.80
2023-05-26T07:03:38.497Z,4.25
2023-05-26T07:06:05.706Z,4.50
2023-05-26T07:08:36.089Z,4.28
2023-05-26T07:11:22.267Z,4.20
2023-05-26T07:13:53.582Z,4.60
2023-05-26T07:16:21.807Z,4.30
2023-05-26T07:18:48.796Z,4.95
2023-05-26T07:21:20.351Z,4.63
2023-05-26T07:23:49.106Z,4.80
2023-05-26T07:26:15.958Z,4.72
2023-05-26T07:28:43.236Z,4.18
2023-05-26T07:31:10.870Z,8.57
2023-05-26T07:33:40.214Z,5.20
2023-05-26T07:36:07.500Z,5.13
2023-05-26T07:38:34.805Z,4.93
2023-05-26T07:41:01.527Z,4.75
2023-05-26T07:43:28.341Z,4.88
2023-05-26T07:45:55.005Z,4.50
2023-05-26T07:48:22.015Z,3.95
2023-05-26T07:50:49.075Z,5.15
2023-05-26T07:53:15.768Z,5.38
2023-05-26T07:55:42.949Z,4.88
2023-05-26T07:58:11.261Z,5.35
2023-05-26T08:00:38.858Z,4.35
2023-05-26T08:03:06.499Z,4.75
2023-05-26T08:05:33.355Z,4.88
2023-05-26T08:08:00.180Z,4.97
2023-05-26T08:10:27.173Z,4.95
2023-05-26T08:12:53.911Z,4.20
2023-05-26T08:15:25.581Z,4.38
2023-05-26T08:17:52.879Z,3.80
2023-05-26T08:20:20.019Z,4.75
2023-05-26T08:22:46.942Z,4.40
2023-05-26T08:25:14.096Z,4.80
2023-05-26T08:27:41.618Z,4.80
2023-05-26T08:30:08.752Z,5.00
2023-05-26T08:32:35.755Z,4.53
2023-05-26T08:35:03.321Z,3.97
2023-05-26T08:37:30.177Z,4.78
2023-05-26T08:39:58.756Z,4.47
2023-05-26T08:42:34.735Z,4.03
2023-05-26T08:45:02.779Z,3.67
2023-05-26T08:47:32.237Z,5.07
2023-05-26T08:50:06.856Z,4.47
2023-05-26T08:52:33.885Z,4.05
2023-05-26T08:55:00.821Z,5.32
2023-05-26T08:57:31.401Z,5.15
2023-05-26T08:59:58.291Z,4.75
2023-05-26T09:02:25.224Z,5.25
2023-05-26T09:04:52.696Z,5.53
2023-05-26T09:09:49.219Z,4.32
2023-05-26T09:12:16.063Z,4.63
2023-05-26T09:14:43.368Z,4.63
2023-05-26T09:17:16.347Z,4.65
2023-05-26T09:19:44.015Z,4.28
2023-05-26T09:22:11.980Z,4.28
2023-05-26T09:24:51.370Z,4.10
2023-05-26T09:27:22.772Z,4.10
2023-05-26T09:29:54.013Z,4.45
2023-05-26T09:32:28.405Z,4.95
2023-05-26T09:35:02.687Z,4.95
2023-05-26T09:37:31.415Z,4.65
2023-05-26T09:40:11.688Z,4.45
2023-05-26T09:42:39.344Z,4.53
2023-05-26T09:45:06.562Z,4.13
2023-05-26T09:47:35.791Z,4.25
2023-05-26T09:50:04.495Z,4.90
2023-05-26T09:52:32.360Z,3.83
2023-05-26T09:54:59.359Z,4.90
2023-05-26T09:57:28.518Z,4.57
2023-05-26T09:59:58.050Z,3.72
2023-05-26T10:02:26.979Z,4.03
2023-05-26T10:04:54.742Z,3.67
2023-05-26T10:07:22.257Z,3.88
2023-05-26T10:10:02.643Z,4.20
2023-05-26T10:12:35.122Z,3.42
2023-05-26T10:15:03.851Z,4.00
2023-05-26T10:17:31.663Z,3.50
2023-05-26T10:20:00.897Z,3.90
2023-05-26T10:22:51.340Z,3.55
2023-05-26T10:25:23.639Z,3.58
2023-05-26T10:28:14.527Z,3.90
2023-05-26T10:33:17.401Z,3.17
2023-05-26T10:35:55.576Z,3.55
2023-05-26T10:38:31.355Z,3.30
2023-05-26T10:40:57.989Z,3.75
2023-05-26T10:43:27.212Z,3.10
2023-05-26T10:46:02.145Z,3.58
2023-05-26T10:48:39.200Z,3.10
2023-05-26T10:51:07.130Z,3.30
2023-05-26T10:53:33.701Z,2.80
2023-05-26T10:56:03.915Z,3.28
2023-05-26T10:58:30.857Z,3.95
2023-05-26T11:01:04.343Z,3.30
2023-05-26T11:03:48.225Z,3.83
2023-05-26T11:06:17.933Z,3.97
2023-05-26T11:08:50.899Z,3.53
2023-05-26T11:11:29.569Z,4.22
2023-05-26T11:14:11.380Z,4.45
2023-05-26T11:16:41.356Z,4.43
2023-05-26T11:19:09.646Z,4.43
2023-05-26T11:21:37.856Z,3.85
2023-05-26T11:24:05.601Z,4.03
2023-05-26T11:26:33.783Z,4.13
2023-05-26T11:29:03.081Z,4.40
2023-05-26T11:31:30.304Z,3.92
2023-05-26T11:33:58.743Z,3.40
2023-05-26T11:36:25.778Z,3.30
2023-05-26T11:38:58.291Z,3.80
2023-05-26T11:41:28.816Z,3.97
2023-05-26T11:43:56.062Z,2.85
2023-05-26T11:46:24.659Z,2.80
2023-05-26T11:48:51.886Z,3.83
2023-05-26T11:51:21.218Z,4.15
2023-05-26T11:53:53.412Z,4.20
2023-05-26T11:56:21.346Z,3.63
2023-05-26T11:58:50.166Z,3.67
2023-05-26T12:01:16.859Z,3.38
2023-05-26T12:03:47.459Z,3.85
2023-05-26T12:08:59.068Z,2.92
2023-05-26T12:11:31.846Z,3.83
2023-05-26T12:14:04.564Z,3.80
2023-05-26T12:16:36.460Z,3.03
2023-05-26T12:19:07.833Z,3.58
2023-05-26T12:21:44.908Z,3.17
2023-05-26T12:24:12.653Z,4.05
2023-05-26T12:26:41.102Z,3.40
2023-05-26T12:29:15.059Z,3.20
2023-05-26T12:31:53.547Z,2.95
2023-05-26T12:34:24.333Z,3.05
2023-05-26T12:36:51.935Z,3.55
2023-05-26T12:39:19.687Z,3.05
2023-05-26T12:41:47.337Z,3.50
2023-05-26T12:44:17.282Z,3.70
2023-05-26T12:46:49.856Z,3.95
2023-05-26T12:49:16.685Z,3.05
2023-05-26T12:51:43.757Z,4.18
2023-05-26T12:54:13.079Z,4.43
2023-05-26T12:56:40.013Z,4.00
2023-05-26T12:59:18.378Z,4.05
2023-05-26T13:01:47.087Z,3.97
2023-05-26T13:04:14.172Z,3.55
2023-05-26T13:06:41.304Z,3.63
2023-05-26T13:09:08.462Z,4.18
2023-05-26T13:11:35.067Z,3.38
2023-05-26T13:14:01.796Z,3.60
2023-05-26T13:16:28.513Z,2.67
2023-05-26T13:18:55.304Z,2.97
2023-05-26T13:21:22.017Z,3.05
2023-05-26T13:23:52.187Z,2.95
2023-05-26T13:26:19.326Z,2.80
2023-05-26T13:28:46.039Z,2.90
2023-05-26T13:31:12.895Z,3.03
2023-05-26T13:33:39.681Z,3.28
2023-05-26T13:36:06.711Z,3.45
2023-05-26T13:38:33.407Z,3.58
2023-05-26T13:41:00.473Z,3.28
2023-05-26T13:43:27.610Z,3.22
2023-05-26T13:45:54.933Z,3.08
2023-05-26T13:48:25.206Z,2.75
2023-05-26T13:53:19.376Z,2.45
2023-05-26T13:55:47.153Z,2.42
2023-05-26T13:58:14.729Z,2.42
2023-05-26T14:00:41.619Z,2.53
2023-05-26T14:03:08.538Z,3.40
2023-05-26T14:05:35.406Z,2.83
2023-05-26T14:08:07.705Z,2.97
2023-05-26T14:10:35.247Z,2.88
2023-05-26T14:13:02.447Z,2.40
2023-05-26T14:15:30.523Z,2.90
2023-05-26T14:23:14.561Z,2.35
2023-05-26T14:25:41.204Z,2.90
2023-05-26T14:28:08.451Z,2.65
2023-05-26T14:30:35.426Z,2.50
2023-05-26T14:33:04.889Z,3.25
2023-05-26T14:35:32.037Z,2.80
2023-05-26T14:37:58.773Z,3.10
2023-05-26T14:40:25.618Z,2.67
2023-05-26T14:42:52.200Z,2.50
2023-05-26T14:45:18.959Z,2.70
2023-05-26T14:47:45.902Z,2.67
2023-05-26T14:50:12.624Z,2.90
2023-05-26T14:52:39.474Z,2.20
2023-05-26T14:55:08.796Z,2.50
2023-05-26T14:57:35.581Z,2.70
2023-05-26T15:00:02.493Z,2.80
2023-05-26T15:02:29.347Z,2.70
2023-05-26T15:04:56.212Z,3.05
2023-05-26T15:07:22.985Z,2.88
2023-05-26T15:09:49.701Z,2.50
2023-05-26T15:12:18.907Z,2.42
2023-05-26T15:14:45.625Z,2.95
2023-05-26T15:17:12.347Z,2.50
2023-05-26T15:19:39.403Z,3.28
2023-05-26T15:22:06.013Z,2.65
2023-05-26T15:24:32.963Z,2.70
2023-05-26T15:26:59.544Z,2.55
2023-05-26T15:29:26.393Z,2.83
2023-05-26T15:31:53.486Z,2.92
2023-05-26T15:34:20.220Z,2.85
2023-05-26T15:36:50.195Z,2.88
2023-05-26T15:39:18.114Z,2.92
2023-05-26T15:41:45.673Z,3.17
2023-05-26T15:44:12.474Z,3.45
2023-05-26T15:46:40.794Z,3.10
2023-05-26T15:49:09.796Z,2.75
2023-05-26T15:51:36.781Z,2.90
2023-05-26T15:54:06.472Z,3.40
2023-05-26T15:56:34.123Z,2.70
2023-05-26T15:59:01.327Z,3.15
2023-05-26T16:01:28.638Z,2.92
2023-05-26T16:03:55.695Z,3.38
2023-05-26T16:06:22.818Z,2.80
2023-05-26T16:08:49.854Z,3.15
2023-05-26T16:11:17.342Z,3.55
2023-05-26T16:13:44.518Z,2.97
2023-05-26T16:16:11.821Z,3.08
2023-05-26T16:18:38.841Z,3.50
2023-05-26T16:21:06.181Z,2.63
2023-05-26T16:23:33.355Z,2.53
2023-05-26T16:26:04.811Z,3.13
2023-05-26T16:28:31.645Z,3.20
2023-05-26T16:30:58.700Z,3.10
2023-05-26T16:33:25.682Z,3.58
2023-05-26T16:35:53.568Z,2.80
2023-05-26T16:38:22.408Z,2.60
2023-05-26T16:40:49.405Z,3.70
2023-05-26T16:43:41.782Z,2.67
2023-05-26T16:46:13.871Z,3.10
2023-05-26T16:48:40.666Z,3.20
2023-05-26T16:51:07.531Z,3.30
2023-05-26T16:53:35.274Z,3.13
2023-05-26T16:56:02.019Z,2.50
2023-05-26T16:58:28.904Z,2.85
2023-05-26T17:00:55.551Z,3.38
2023-05-26T17:03:22.325Z,2.63
2023-05-26T17:05:49.007Z,2.85
2023-05-26T17:08:15.752Z,2.83
2023-05-26T17:10:42.496Z,3.13
2023-05-26T17:13:09.187Z,2.92
2023-05-26T17:15:35.798Z,2.90
2023-05-26T17:18:02.771Z,2.80
2023-05-26T17:20:29.401Z,3.10
2023-05-26T17:22:56.143Z,2.85
2023-05-26T17:25:22.783Z,2.95
2023-05-26T17:27:49.466Z,3.08
2023-05-26T17:30:16.185Z,2.85
2023-05-26T17:32:42.813Z,3.15
2023-05-26T17:35:09.635Z,3.22
2023-05-26T17:37:36.303Z,3.00
2023-05-26T17:40:03.159Z,2.88
2023-05-26T17:42:29.753Z,3.35
2023-05-26T17:44:56.377Z,2.63
2023-05-26T17:47:27.765Z,2.85
2023-05-26T17:49:58.275Z,3.20
2023-05-26T17:52:24.951Z,3.33
2023-05-26T17:54:51.744Z,3.25
2023-05-26T17:57:18.410Z,3.42
2023-05-26T17:59:44.988Z,2.90
2023-05-26T18:02:11.699Z,2.90
2023-05-26T18:04:38.395Z,3.10
2023-05-26T18:07:05.247Z,2.95
2023-05-26T18:09:31.896Z,3.13
2023-05-26T18:11:58.577Z,3.08
2023-05-26T18:14:25.198Z,3.30
2023-05-26T18:16:52.499Z,2.58
2023-05-26T18:19:19.371Z,3.28
2023-05-26T18:21:46.444Z,3.45
2023-05-26T18:24:13.043Z,3.58
2023-05-26T18:26:39.770Z,3.03
2023-05-26T18:29:06.689Z,3.15
2023-05-26T18:31:33.442Z,2.70
2023-05-26T18:34:09.279Z,3.33
2023-05-26T18:36:43.477Z,3.00
2023-05-26T18:39:10.950Z,2.65
2023-05-26T18:41:39.850Z,3.08
2023-05-26T18:44:06.454Z,3.20
2023-05-26T18:46:33.200Z,2.92
2023-05-26T18:48:59.970Z,2.90
2023-05-26T18:51:26.879Z,2.67
2023-05-26T18:53:53.579Z,2.67
2023-05-26T18:58:52.369Z,3.05
2023-05-26T19:01:19.032Z,3.22
2023-05-26T19:03:46.161Z,3.60
2023-05-26T19:06:13.270Z,3.55
2023-05-26T19:08:39.900Z,3.42
2023-05-26T19:11:06.528Z,3.65
2023-05-26T19:13:33.306Z,3.60
2023-05-26T19:15:59.937Z,4.20
2023-05-26T19:18:27.133Z,4.25
2023-05-26T19:20:54.721Z,4.43
2023-05-26T19:23:21.617Z,4.53
2023-05-26T19:25:48.521Z,4.43
2023-05-26T19:28:18.307Z,4.18
2023-05-26T19:30:46.131Z,3.50
2023-05-26T19:33:12.969Z,3.72
2023-05-26T19:35:39.722Z,3.08
2023-05-26T19:38:06.447Z,3.22
2023-05-26T19:40:33.253Z,3.55
2023-05-26T19:42:59.852Z,2.90
2023-05-26T19:45:27.628Z,3.13
2023-05-26T19:47:54.404Z,3.60
2023-05-26T19:50:21.305Z,3.53
2023-05-26T19:52:48.109Z,3.67
2023-05-26T19:55:14.697Z,3.63
2023-05-26T19:57:41.510Z,3.42
2023-05-26T20:00:12.854Z,3.28
2023-05-26T20:02:40.041Z,3.53
2023-05-26T20:05:07.497Z,3.30
2023-05-26T20:07:36.230Z,3.70
2023-05-26T20:10:03.616Z,3.22
2023-05-26T20:12:31.378Z,3.42
2023-05-26T20:14:59.703Z,3.85
2023-05-26T20:17:26.334Z,3.05
2023-05-26T20:20:11.554Z,2.83
2023-05-26T20:22:39.794Z,3.00
2023-05-26T20:25:07.598Z,4.25
2023-05-26T20:27:36.211Z,3.20
2023-05-26T20:30:03.405Z,3.33
2023-05-26T20:32:29.993Z,3.70
2023-05-26T20:34:56.604Z,3.40
2023-05-26T20:37:23.546Z,3.42
2023-05-26T20:39:54.606Z,4.13
2023-05-26T20:44:48.956Z,3.05
2023-05-26T20:47:16.067Z,3.65
2023-05-26T20:49:43.682Z,4.05
2023-05-26T20:52:10.755Z,2.90
2023-05-26T20:54:37.492Z,3.20
2023-05-26T20:57:04.400Z,3.50
2023-05-26T20:59:33.601Z,3.30
2023-05-26T21:02:00.631Z,3.25
2023-05-26T21:04:27.934Z,2.97
2023-05-26T21:06:54.948Z,3.40
2023-05-26T21:09:21.770Z,3.80
2023-05-26T21:11:48.527Z,3.30
2023-05-26T21:14:15.245Z,3.38
2023-05-26T21:16:42.001Z,3.20
2023-05-26T21:19:08.840Z,3.28
2023-05-26T21:21:36.062Z,3.38
2023-05-26T21:24:03.184Z,3.55
2023-05-26T21:26:29.811Z,3.65
2023-05-26T21:28:56.918Z,3.42
2023-05-26T21:31:23.657Z,3.13
2023-05-26T21:33:50.307Z,3.78
2023-05-26T21:36:17.151Z,3.60
2023-05-26T21:38:44.091Z,3.58
2023-05-26T21:41:13.557Z,4.00
2023-05-26T21:43:40.489Z,4.15
2023-05-26T21:46:07.369Z,3.80
2023-05-26T21:48:34.334Z,3.28
2023-05-26T21:51:01.529Z,3.60
2023-05-26T21:53:28.366Z,8.68
2023-05-26T21:55:55.380Z,3.92
2023-05-26T21:58:22.190Z,3.38
2023-05-26T22:00:48.784Z,4.18
2023-05-26T22:03:16.354Z,3.78
2023-05-26T22:05:43.116Z,4.10
2023-05-26T22:08:10.139Z,3.90
2023-05-26T22:10:36.850Z,3.95
2023-05-26T22:13:03.455Z,3.50
2023-05-26T22:15:30.398Z,4.13
2023-05-26T22:17:57.187Z,4.00
2023-05-26T22:20:24.374Z,4.13
2023-05-26T22:22:51.043Z,4.43
2023-05-26T22:25:18.135Z,4.60
2023-05-26T22:27:44.912Z,3.80
2023-05-26T22:30:12.506Z,3.97
2023-05-26T22:32:39.117Z,3.80
2023-05-26T22:35:05.975Z,4.07
2023-05-26T22:37:32.547Z,4.47
2023-05-26T22:39:59.492Z,3.53
2023-05-26T22:42:26.145Z,4.13
2023-05-26T22:44:52.798Z,4.05
2023-05-26T22:47:19.508Z,4.60
2023-05-26T22:49:48.378Z,3.53
2023-05-26T22:52:15.621Z,4.15
2023-05-26T22:54:42.483Z,4.65
2023-05-26T22:57:09.862Z,3.80
2023-05-26T22:59:36.662Z,4.28
2023-05-26T23:02:03.486Z,4.10
2023-05-26T23:04:30.098Z,3.65
2023-05-26T23:06:56.930Z,4.40
2023-05-26T23:09:23.485Z,4.88
2023-05-26T23:11:50.138Z,4.80
2023-05-26T23:14:17.494Z,4.28
2023-05-26T23:16:44.132Z,4.53
2023-05-26T23:19:12.589Z,4.63
2023-05-26T23:21:39.737Z,4.20
2023-05-26T23:24:06.674Z,4.82
2023-05-26T23:26:33.406Z,5.28
2023-05-26T23:29:00.179Z,4.90
2023-05-26T23:31:27.040Z,5.65
2023-05-26T23:33:54.102Z,4.97
2023-05-26T23:36:20.794Z,5.43
2023-05-26T23:38:47.392Z,5.30
2023-05-26T23:41:14.013Z,5.63
2023-05-26T23:43:40.732Z,5.00
2023-05-26T23:46:07.629Z,4.57
2023-05-26T23:48:34.636Z,4.80
2023-05-26T23:51:01.424Z,4.18
2023-05-26T23:53:28.263Z,4.10
2023-05-26T23:55:54.916Z,4.38
2023-05-26T23:58:21.822Z,5.07
